Time;durP1;ratioP1;P1;durP2;ratioP2;P2;SDS_P1;SDS_P2;PMS_P1;PMS_P2;Temp;Humidity;BMP_temperature;BMP_pressure;BME280_temperature;BME280_humidity;BME280_pressure;Samples;Min_cycle;Max_cycle;Signal;HPM_P1;HPM_P2
2022/12/31 00:00:38;;;;;;;2.10;1.90;;;11.20;1.00;;;;;;4991199;28;20173;-64
2022/12/31 00:03:05;;;;;;;4.30;1.80;;;11.10;1.00;;;;;;4992162;28;21020;-63
2022/12/31 00:05:32;;;;;;;4.67;2.07;;;11.10;1.00;;;;;;4992056;28;20435;-65
2022/12/31 00:07:58;;;;;;;4.10;1.90;;;11.10;1.00;;;;;;4989032;28;21069;-64
2022/12/31 00:10:24;;;;;;;5.20;1.70;;;11.10;1.00;;;;;;4989147;28;20427;-65
2022/12/31 00:12:50;;;;;;;4.07;1.70;;;11.20;1.00;;;;;;4990215;28;21075;-62
2022/12/31 00:15:16;;;;;;;1.50;1.40;;;11.20;1.00;;;;;;4986925;28;20201;-63
2022/12/31 00:17:41;;;;;;;2.70;1.73;;;11.20;1.00;;;;;;4990199;28;20193;-63
2022/12/31 00:20:07;;;;;;;2.00;1.80;;;11.30;1.00;;;;;;4990554;28;20427;-63
2022/12/31 00:22:33;;;;;;;2.00;1.50;;;11.20;1.00;;;;;;4990334;28;20208;-64
2022/12/31 00:24:59;;;;;;;2.60;1.57;;;11.20;1.00;;;;;;4990850;28;20295;-62
2022/12/31 00:27:24;;;;;;;7.30;2.00;;;11.20;1.00;;;;;;4990668;28;20195;-65
2022/12/31 00:29:50;;;;;;;4.23;1.70;;;11.30;1.00;;;;;;4989889;28;20168;-65
2022/12/31 00:32:16;;;;;;;1.77;1.30;;;11.30;1.00;;;;;;4990232;28;20509;-65
2022/12/31 00:34:42;;;;;;;7.17;1.93;;;11.30;1.00;;;;;;4989923;28;20858;-65
2022/12/31 00:37:07;;;;;;;1.60;1.37;;;11.40;1.00;;;;;;4988015;28;20185;-63
2022/12/31 00:39:33;;;;;;;2.40;1.57;;;11.50;1.00;;;;;;4989368;28;20649;-64
2022/12/31 00:41:59;;;;;;;2.33;1.57;;;11.40;1.00;;;;;;4988720;28;20262;-65
2022/12/31 00:44:24;;;;;;;1.93;1.60;;;11.40;1.00;;;;;;4989140;28;20211;-63
2022/12/31 00:46:50;;;;;;;3.00;1.50;;;11.40;1.00;;;;;;4990577;28;20173;-63
2022/12/31 00:49:16;;;;;;;2.03;1.40;;;11.60;1.00;;;;;;4990669;28;20173;-64
2022/12/31 00:51:41;;;;;;;1.63;1.43;;;11.60;1.00;;;;;;4988750;28;20201;-63
2022/12/31 00:54:08;;;;;;;4.00;1.33;;;11.60;1.00;;;;;;4990221;28;20185;-64
2022/12/31 00:56:33;;;;;;;4.93;1.40;;;11.60;1.00;;;;;;4990356;28;20633;-63
2022/12/31 00:58:59;;;;;;;2.30;1.33;;;11.50;1.00;;;;;;4989864;28;20591;-64
2022/12/31 01:01:32;;;;;;;1.63;1.33;;;11.60;1.00;;;;;;4988527;28;20208;-64
2022/12/31 01:04:04;;;;;;;2.20;1.30;;;11.60;1.00;;;;;;4990169;28;20800;-64
2022/12/31 01:06:30;;;;;;;2.40;1.60;;;11.60;1.00;;;;;;4989273;28;20475;-64
2022/12/31 01:08:55;;;;;;;1.33;1.23;;;11.60;1.00;;;;;;4989314;28;20835;-65
2022/12/31 01:11:22;;;;;;;1.77;1.33;;;11.60;1.00;;;;;;4989760;28;20208;-64
2022/12/31 01:13:54;;;;;;;1.60;0.90;;;11.50;1.00;;;;;;4988511;28;20177;-64
2022/12/31 01:16:23;;;;;;;2.90;2.13;;;11.50;1.00;;;;;;4989276;28;20954;-64
2022/12/31 01:18:49;;;;;;;2.00;1.40;;;11.60;1.00;;;;;;4986235;28;20424;-65
2022/12/31 01:21:15;;;;;;;1.70;1.40;;;11.60;1.00;;;;;;4992010;28;20491;-65
2022/12/31 01:23:41;;;;;;;2.03;1.70;;;11.70;1.00;;;;;;4993325;28;20181;-65
2022/12/31 01:26:10;;;;;;;2.20;1.27;;;11.60;1.00;;;;;;4993460;28;20460;-64
2022/12/31 01:28:36;;;;;;;2.70;1.40;;;11.70;1.00;;;;;;4993460;28;20181;-64
2022/12/31 01:31:11;;;;;;;2.70;1.63;;;11.70;1.00;;;;;;4991208;28;20427;-64
2022/12/31 01:33:37;;;;;;;1.73;1.13;;;11.60;1.00;;;;;;4991798;28;20184;-64
2022/12/31 01:36:11;;;;;;;3.03;1.53;;;11.60;1.00;;;;;;4993401;28;20455;-64
2022/12/31 01:38:37;;;;;;;2.67;1.30;;;11.50;1.00;;;;;;4994414;28;20946;-64
2022/12/31 01:41:03;;;;;;;1.83;1.47;;;11.50;1.00;;;;;;4994406;28;20448;-64
2022/12/31 01:43:54;;;;;;;1.87;1.37;;;11.50;1.00;;;;;;4994447;28;20187;-64
2022/12/31 01:46:55;;;;;;;2.47;2.00;;;11.50;1.00;;;;;;4995906;28;20495;-65
2022/12/31 01:49:32;;;;;;;4.87;1.83;;;11.40;1.00;;;;;;4973538;28;20420;-64
2022/12/31 01:52:12;;;;;;;4.23;1.90;;;11.40;1.00;;;;;;4995295;28;20403;-64
2022/12/31 01:54:46;;;;;;;3.00;1.77;;;11.50;1.00;;;;;;4995152;28;20747;-65
2022/12/31 01:57:12;;;;;;;1.70;1.50;;;11.50;1.00;;;;;;4995111;28;20493;-64
2022/12/31 01:59:38;;;;;;;1.97;1.87;;;11.40;1.00;;;;;;4993725;28;20479;-65
2022/12/31 02:02:05;;;;;;;1.80;1.43;;;11.40;1.00;;;;;;4995239;28;20869;-64
2022/12/31 02:04:30;;;;;;;3.77;1.60;;;11.50;1.00;;;;;;4994014;28;20849;-65
2022/12/31 02:07:02;;;;;;;2.80;1.67;;;11.40;1.00;;;;;;4994480;28;20411;-65
2022/12/31 02:09:29;;;;;;;3.37;1.73;;;11.40;1.00;;;;;;4993816;28;20660;-65
2022/12/31 02:11:55;;;;;;;3.83;2.30;;;11.40;1.00;;;;;;4993473;28;20909;-64
2022/12/31 02:14:25;;;;;;;2.00;1.63;;;11.40;1.00;;;;;;4996452;28;20434;-64
2022/12/31 02:17:00;;;;;;;4.23;1.57;;;11.30;1.00;;;;;;4995984;28;20185;-62
2022/12/31 02:19:35;;;;;;;5.50;1.87;;;11.40;1.00;;;;;;4994485;28;20475;-64
2022/12/31 02:22:33;;;;;;;3.90;2.20;;;11.30;1.00;;;;;;4991137;28;20466;-63
2022/12/31 02:25:17;;;;;;;2.10;1.57;;;11.40;1.00;;;;;;4974230;28;20479;-62
2022/12/31 02:28:01;;;;;;;2.93;1.70;;;11.30;1.00;;;;;;4992438;28;20432;-63
2022/12/31 02:30:31;;;;;;;1.77;1.60;;;11.30;1.00;;;;;;4983811;28;20424;-63
2022/12/31 02:33:05;;;;;;;2.27;1.63;;;11.30;1.00;;;;;;4990812;28;20841;-63
2022/12/31 02:35:52;;;;;;;2.73;1.70;;;11.30;1.00;;;;;;4991942;28;20447;-64
2022/12/31 02:38:32;;;;;;;3.67;2.00;;;11.30;1.00;;;;;;4988229;28;20534;-62
2022/12/31 02:40:59;;;;;;;1.60;1.20;;;11.30;1.00;;;;;;4989795;28;20456;-62
2022/12/31 02:43:25;;;;;;;1.97;1.80;;;11.20;1.00;;;;;;4992589;28;20440;-63
2022/12/31 02:46:32;;;;;;;1.90;1.70;;;11.30;1.00;;;;;;4988632;28;20455;-62
2022/12/31 02:49:11;;;;;;;3.63;1.50;;;11.20;1.00;;;;;;4978654;28;20440;-60
2022/12/31 02:51:48;;;;;;;2.03;1.60;;;11.30;1.00;;;;;;4990614;28;20432;-60
2022/12/31 02:54:32;;;;;;;5.40;1.90;;;11.30;1.00;;;;;;4989248;28;20424;-63
2022/12/31 02:57:04;;;;;;;2.67;1.77;;;11.30;1.00;;;;;;4991054;28;20436;-63
2022/12/31 03:02:46;;;;;;;2.43;2.23;;;11.30;1.00;;;;;;4990823;28;20513;-62
2022/12/31 03:05:14;;;;;;;3.27;2.10;;;11.30;1.00;;;;;;4990712;28;20439;-64
2022/12/31 03:07:41;;;;;;;1.63;1.40;;;11.40;1.00;;;;;;4973701;28;20811;-63
2022/12/31 03:10:08;;;;;;;3.97;1.53;;;11.30;1.00;;;;;;4990706;28;20428;-65
2022/12/31 03:12:46;;;;;;;1.77;1.50;;;11.30;1.00;;;;;;4990381;28;20436;-65
2022/12/31 03:15:26;;;;;;;2.00;1.33;;;11.30;1.00;;;;;;4990164;28;20819;-60
2022/12/31 03:17:53;;;;;;;3.07;2.30;;;11.40;1.00;;;;;;4991452;28;20423;-61
2022/12/31 03:23:10;;;;;;;3.40;1.83;;;11.40;1.00;;;;;;4990905;28;20478;-63
2022/12/31 03:25:37;;;;;;;11.67;2.37;;;11.40;1.00;;;;;;5013716;23;20947;-63
2022/12/31 03:28:09;;;;;;;5.33;1.47;;;11.50;1.00;;;;;;4990357;28;20443;-64
2022/12/31 03:30:38;;;;;;;4.80;1.77;;;11.60;1.00;;;;;;4988366;28;20987;-64
2022/12/31 03:33:04;;;;;;;4.40;2.93;;;11.40;1.00;;;;;;4990075;28;20448;-64
2022/12/31 03:35:32;;;;;;;3.17;1.53;;;11.40;1.00;;;;;;4989648;28;20444;-64
2022/12/31 03:37:58;;;;;;;3.53;1.87;;;11.40;1.00;;;;;;4989106;28;20502;-64
2022/12/31 03:40:25;;;;;;;1.80;1.50;;;11.50;1.00;;;;;;4989423;28;20431;-64
2022/12/31 03:42:51;;;;;;;2.10;1.30;;;11.60;1.00;;;;;;4990509;28;20463;-64
2022/12/31 03:45:17;;;;;;;3.70;1.47;;;11.50;1.00;;;;;;4990682;28;20432;-64
2022/12/31 03:47:43;;;;;;;2.27;1.47;;;11.50;1.00;;;;;;4991495;28;20237;-64
2022/12/31 03:50:11;;;;;;;1.80;1.60;;;11.50;1.00;;;;;;4991354;28;20555;-65
2022/12/31 03:52:37;;;;;;;2.63;1.47;;;11.50;1.00;;;;;;4991030;28;20820;-64
2022/12/31 03:55:03;;;;;;;4.63;1.70;;;11.50;1.00;;;;;;4991246;28;20407;-64
2022/12/31 03:57:29;;;;;;;1.40;1.20;;;11.50;1.00;;;;;;4991293;28;20571;-64
2022/12/31 03:59:54;;;;;;;1.40;1.13;;;11.60;1.00;;;;;;4988284;28;20404;-64
2022/12/31 04:02:20;;;;;;;2.10;1.50;;;11.50;1.00;;;;;;4971205;28;20515;-64
2022/12/31 04:04:46;;;;;;;2.27;1.30;;;11.50;1.00;;;;;;4971596;28;20174;-64
2022/12/31 04:07:12;;;;;;;3.20;1.30;;;11.50;1.00;;;;;;4982715;28;20169;-64
2022/12/31 04:09:37;;;;;;;2.47;1.50;;;11.50;1.00;;;;;;4990852;28;20169;-64
2022/12/31 04:12:04;;;;;;;4.07;1.70;;;11.50;1.00;;;;;;4990481;28;20196;-64
2022/12/31 04:14:29;;;;;;;1.97;1.40;;;11.50;1.00;;;;;;4971256;28;20595;-64
2022/12/31 04:16:55;;;;;;;4.67;1.47;;;11.60;1.00;;;;;;4989742;28;20539;-64
2022/12/31 04:19:21;;;;;;;2.53;1.70;;;11.60;1.00;;;;;;4989553;28;20211;-64
2022/12/31 04:21:46;;;;;;;3.07;1.83;;;11.60;1.00;;;;;;4988715;28;20262;-64
2022/12/31 04:24:12;;;;;;;4.07;1.30;;;11.50;1.00;;;;;;4989643;28;20219;-64
2022/12/31 04:26:38;;;;;;;1.90;1.40;;;11.50;1.00;;;;;;4988588;28;20306;-65
2022/12/31 04:29:04;;;;;;;4.13;1.57;;;11.40;1.00;;;;;;4988875;28;20220;-64
2022/12/31 04:31:30;;;;;;;5.90;1.77;;;11.40;1.00;;;;;;4988618;28;20518;-64
2022/12/31 04:33:55;;;;;;;5.50;2.20;;;11.40;1.00;;;;;;4989382;28;20177;-64
2022/12/31 04:36:21;;;;;;;1.60;1.30;;;11.40;1.00;;;;;;4989625;28;20731;-64
2022/12/31 04:38:47;;;;;;;2.07;1.70;;;11.30;1.00;;;;;;4988762;28;20191;-64
2022/12/31 04:41:16;;;;;;;1.80;1.40;;;11.30;1.00;;;;;;4988469;28;20207;-64
2022/12/31 04:43:43;;;;;;;1.50;1.30;;;11.30;1.00;;;;;;4984385;28;20177;-64
2022/12/31 04:46:09;;;;;;;1.90;1.80;;;11.40;1.00;;;;;;4989296;28;20459;-64
2022/12/31 04:48:35;;;;;;;2.47;1.40;;;11.40;1.00;;;;;;4988995;28;20424;-64
2022/12/31 04:51:00;;;;;;;2.90;1.43;;;11.40;1.00;;;;;;4988115;28;20263;-64
2022/12/31 04:53:27;;;;;;;3.13;1.37;;;11.40;1.00;;;;;;4988874;28;20600;-64
2022/12/31 04:55:53;;;;;;;2.70;1.40;;;11.40;1.00;;;;;;4989093;28;20670;-64
2022/12/31 04:58:19;;;;;;;1.70;1.30;;;11.50;1.00;;;;;;4988911;28;20479;-64
2022/12/31 05:00:48;;;;;;;3.47;1.90;;;11.70;1.00;;;;;;4985264;28;20435;-64
2022/12/31 05:03:14;;;;;;;2.13;1.57;;;11.60;1.00;;;;;;4989471;28;20783;-64
2022/12/31 05:05:44;;;;;;;3.07;1.60;;;11.60;1.00;;;;;;4970229;28;20478;-64
2022/12/31 05:08:13;;;;;;;4.20;1.63;;;11.70;1.00;;;;;;4988242;28;20532;-64
2022/12/31 05:10:47;;;;;;;5.23;1.97;;;11.70;1.00;;;;;;4987297;28;20516;-64
2022/12/31 05:13:13;;;;;;;2.37;1.40;;;11.60;1.00;;;;;;4988922;28;20781;-64
2022/12/31 05:15:39;;;;;;;8.20;1.80;;;11.60;1.00;;;;;;4988216;28;20455;-63
2022/12/31 05:18:06;;;;;;;2.63;1.77;;;11.60;1.00;;;;;;4989128;28;20447;-64
2022/12/31 05:20:32;;;;;;;3.13;1.63;;;11.50;1.00;;;;;;4987199;28;20436;-64
2022/12/31 05:22:58;;;;;;;5.90;1.40;;;11.50;1.00;;;;;;4988748;28;20466;-64
2022/12/31 05:25:23;;;;;;;2.80;1.40;;;11.40;1.00;;;;;;4987929;28;20475;-64
2022/12/31 05:27:49;;;;;;;2.47;1.60;;;11.40;1.00;;;;;;4988285;28;20188;-65
2022/12/31 05:30:17;;;;;;;2.03;1.67;;;11.50;1.00;;;;;;4985470;28;20913;-64
2022/12/31 05:32:43;;;;;;;3.30;1.40;;;11.50;1.00;;;;;;4987631;28;20185;-65
2022/12/31 05:35:09;;;;;;;6.33;1.50;;;11.50;1.00;;;;;;4988271;28;20833;-65
2022/12/31 05:37:35;;;;;;;2.00;1.40;;;11.50;1.00;;;;;;4989259;28;20491;-65
2022/12/31 05:40:01;;;;;;;2.57;1.30;;;11.50;1.00;;;;;;4990036;28;20451;-65
2022/12/31 05:42:27;;;;;;;2.60;1.37;;;11.40;1.00;;;;;;4989477;28;20193;-65
2022/12/31 05:44:53;;;;;;;3.97;1.50;;;11.40;1.00;;;;;;4989737;28;20683;-65
2022/12/31 05:47:19;;;;;;;2.70;1.60;;;11.40;1.00;;;;;;4990253;28;20180;-65
2022/12/31 05:49:44;;;;;;;1.90;1.43;;;11.40;1.00;;;;;;4990163;28;20172;-65
2022/12/31 05:52:10;;;;;;;1.83;1.27;;;11.40;1.00;;;;;;4989598;28;20412;-65
2022/12/31 05:54:36;;;;;;;2.13;1.50;;;11.40;1.00;;;;;;4987198;28;20174;-65
2022/12/31 05:57:03;;;;;;;3.50;1.40;;;11.40;1.00;;;;;;4970873;28;20197;-65
2022/12/31 05:59:28;;;;;;;2.90;1.27;;;11.40;1.00;;;;;;4980250;28;20263;-65
2022/12/31 06:01:54;;;;;;;4.00;1.37;;;11.40;1.00;;;;;;4987024;28;20555;-65
2022/12/31 06:04:20;;;;;;;7.10;2.00;;;11.40;1.00;;;;;;4989007;28;20177;-64
2022/12/31 06:06:45;;;;;;;2.83;1.57;;;11.40;1.00;;;;;;4988975;28;20201;-65
2022/12/31 06:09:11;;;;;;;3.27;1.07;;;11.40;1.00;;;;;;4989002;28;20205;-64
2022/12/31 06:11:37;;;;;;;4.67;1.60;;;11.40;1.00;;;;;;4992523;28;20181;-65
2022/12/31 06:14:03;;;;;;;3.40;1.43;;;11.40;1.00;;;;;;4992188;28;20514;-65
2022/12/31 06:16:28;;;;;;;3.10;1.70;;;11.40;1.00;;;;;;4991800;28;20197;-65
2022/12/31 06:18:54;;;;;;;2.80;1.40;;;11.40;1.00;;;;;;4989525;28;20525;-65
2022/12/31 06:21:21;;;;;;;5.47;1.57;;;11.30;1.00;;;;;;4991786;28;20211;-64
2022/12/31 06:23:47;;;;;;;2.57;1.97;;;11.30;1.00;;;;;;4993071;28;20177;-65
2022/12/31 06:26:14;;;;;;;2.10;1.70;;;11.30;1.00;;;;;;4989692;28;20482;-64
2022/12/31 06:28:40;;;;;;;4.17;1.87;;;11.40;1.00;;;;;;4995510;28;20432;-64
2022/12/31 06:31:08;;;;;;;1.70;1.47;;;11.40;1.00;;;;;;4991787;28;20522;-65
2022/12/31 06:33:34;;;;;;;3.73;1.67;;;11.40;1.00;;;;;;4993019;28;20439;-64
2022/12/31 06:36:02;;;;;;;5.57;1.67;;;11.40;1.00;;;;;;4992106;28;20467;-64
2022/12/31 06:38:30;;;;;;;4.03;1.90;;;11.40;1.00;;;;;;4991113;28;20432;-64
2022/12/31 06:40:56;;;;;;;3.90;2.10;;;11.40;1.00;;;;;;4987299;28;20451;-64
2022/12/31 06:43:22;;;;;;;4.63;1.77;;;11.50;1.00;;;;;;4999801;28;20436;-65
2022/12/31 06:45:48;;;;;;;6.80;2.00;;;11.40;1.00;;;;;;4987951;28;20212;-66
2022/12/31 06:48:14;;;;;;;5.00;2.13;;;11.50;1.00;;;;;;4990602;28;20177;-65
2022/12/31 06:50:39;;;;;;;14.87;2.13;;;11.40;1.00;;;;;;4991305;28;20180;-66
2022/12/31 06:53:06;;;;;;;11.37;2.33;;;11.40;1.00;;;;;;4991138;28;20782;-65
2022/12/31 06:55:32;;;;;;;2.93;1.90;;;11.40;1.00;;;;;;4991348;28;20220;-65
2022/12/31 06:57:58;;;;;;;7.63;2.20;;;11.40;1.00;;;;;;4991707;28;20448;-65
2022/12/31 07:00:24;;;;;;;4.47;1.90;;;11.40;1.00;;;;;;4989586;28;20424;-66
2022/12/31 07:03:20;;;;;;;6.40;2.07;;;11.30;1.00;;;;;;4991416;28;21033;-64
2022/12/31 07:05:51;;;;;;;5.87;2.10;;;11.20;1.00;;;;;;4991033;28;20193;-65
2022/12/31 07:08:31;;;;;;;2.70;1.30;;;11.20;1.00;;;;;;4989254;28;20455;-64
2022/12/31 07:11:15;;;;;;;6.33;2.30;;;11.40;1.00;;;;;;4989704;28;20424;-64
2022/12/31 07:14:18;;;;;;;5.50;1.53;;;11.40;1.00;;;;;;4992505;28;20451;-64
2022/12/31 07:16:53;;;;;;;4.23;1.77;;;11.40;1.00;;;;;;4991335;28;20922;-64
2022/12/31 07:20:04;;;;;;;40.33;7.73;;;11.30;1.00;;;;;;4994404;28;20449;-64
2022/12/31 07:22:29;;;;;;;2.80;2.13;;;11.20;1.00;;;;;;4961265;28;20457;-65
2022/12/31 07:24:55;;;;;;;3.90;1.60;;;11.20;1.00;;;;;;4971678;28;20960;-64
2022/12/31 07:27:40;;;;;;;8.60;2.37;;;11.20;1.00;;;;;;4985463;28;20183;-64
2022/12/31 07:30:12;;;;;;;6.33;1.80;;;11.10;1.00;;;;;;4995009;28;20464;-65
2022/12/31 07:33:21;;;;;;;2.47;1.77;;;11.20;1.00;;;;;;5010513;28;20410;-64
2022/12/31 07:36:04;;;;;;;32.20;4.23;;;11.10;1.00;;;;;;4950612;28;20503;-64
2022/12/31 07:39:11;;;;;;;16.20;3.40;;;11.20;1.00;;;;;;4987056;28;20486;-62
2022/12/31 07:42:01;;;;;;;13.83;4.10;;;11.40;1.00;;;;;;4989593;28;20464;-64
2022/12/31 07:44:49;;;;;;;6.53;2.30;;;11.40;1.00;;;;;;4986648;28;20420;-65
2022/12/31 07:47:26;;;;;;;4.73;1.90;;;11.30;1.00;;;;;;4988935;28;20518;-65
2022/12/31 07:49:53;;;;;;;2.20;1.80;;;11.40;1.00;;;;;;4985266;28;20432;-65
2022/12/31 07:52:19;;;;;;;8.33;2.23;;;11.40;1.00;;;;;;4986978;28;20424;-65
2022/12/31 07:54:45;;;;;;;13.23;2.97;;;11.60;1.00;;;;;;4991247;28;20692;-65
2022/12/31 07:57:12;;;;;;;9.13;2.80;;;11.80;1.00;;;;;;4990686;28;20947;-65
2022/12/31 07:59:47;;;;;;;9.93;2.40;;;11.80;1.00;;;;;;4990109;28;20606;-65
2022/12/31 08:02:37;;;;;;;2.60;1.80;;;11.80;1.00;;;;;;4998385;28;20951;-65
2022/12/31 08:05:20;;;;;;;11.03;3.00;;;11.80;1.00;;;;;;4990856;28;20508;-64
2022/12/31 08:08:01;;;;;;;24.90;3.07;;;11.80;1.00;;;;;;4990658;28;20411;-64
2022/12/31 08:10:37;;;;;;;17.70;3.70;;;11.80;1.00;;;;;;4997799;28;20486;-65
2022/12/31 08:13:09;;;;;;;13.87;2.73;;;11.80;1.00;;;;;;5008471;28;20414;-64
2022/12/31 08:15:37;;;;;;;11.53;2.57;;;12.30;1.00;;;;;;5001314;28;20430;-65
2022/12/31 08:18:03;;;;;;;39.60;4.77;;;12.30;1.00;;;;;;4990502;28;20522;-65
2022/12/31 08:20:31;;;;;;;10.17;2.70;;;12.10;1.00;;;;;;4988411;28;20432;-65
2022/12/31 08:23:27;;;;;;;9.63;3.20;;;12.00;1.00;;;;;;4999016;28;20475;-65
2022/12/31 08:26:12;;;;;;;65.07;8.40;;;11.90;1.00;;;;;;5008746;28;20526;-65
2022/12/31 08:29:16;;;;;;;36.20;4.97;;;11.90;1.00;;;;;;5010653;28;20399;-66
2022/12/31 08:32:17;;;;;;;70.37;9.40;;;12.20;1.00;;;;;;4889390;29;20519;-66
2022/12/31 08:35:02;;;;;;;32.53;5.13;;;12.50;1.00;;;;;;5005394;28;20421;-65
2022/12/31 08:37:40;;;;;;;13.77;2.80;;;12.80;1.00;;;;;;5010328;28;20423;-65
2022/12/31 08:40:42;;;;;;;26.93;5.33;;;13.80;1.00;;;;;;5010216;28;20502;-66
2022/12/31 08:43:58;;;;;;;32.73;5.70;;;14.80;1.00;;;;;;5005666;28;20463;-65
2022/12/31 08:46:51;;;;;;;20.63;3.73;;;16.10;99.90;;;;;;4941966;28;20451;-65
2022/12/31 08:49:17;;;;;;;28.83;4.33;;;17.70;1.00;;;;;;4996952;28;20415;-66
2022/12/31 08:51:43;;;;;;;19.80;4.07;;;18.40;1.00;;;;;;5009280;28;20723;-65
2022/12/31 08:54:11;;;;;;;15.37;3.40;;;19.10;1.00;;;;;;4987588;28;20181;-64
2022/12/31 08:56:56;;;;;;;22.33;5.30;;;18.20;1.00;;;;;;4989917;28;20463;-65
2022/12/31 08:59:39;;;;;;;6.53;2.57;;;16.80;1.00;;;;;;4988772;28;20431;-65
2022/12/31 09:02:42;;;;;;;2.40;1.63;;;16.10;1.00;;;;;;4988710;28;20507;-64
2022/12/31 09:05:30;;;;;;;2.37;1.80;;;17.50;1.00;;;;;;4988580;28;20450;-63
2022/12/31 09:08:20;;;;;;;14.57;3.53;;;19.60;1.00;;;;;;4989529;28;20868;-65
2022/12/31 09:10:57;;;;;;;47.57;9.90;;;20.80;99.90;;;;;;4985418;28;20494;-66
2022/12/31 09:13:40;;;;;;;55.77;8.87;;;21.80;99.90;;;;;;4984761;28;20527;-67
2022/12/31 09:16:35;;;;;;;18.47;3.40;;;21.80;99.90;;;;;;4989012;28;20455;-67
2022/12/31 09:19:01;;;;;;;33.53;5.20;;;19.50;99.90;;;;;;4988753;28;20497;-66
2022/12/31 09:21:26;;;;;;;6.53;2.43;;;17.70;99.90;;;;;;4986760;28;20944;-66
2022/12/31 09:23:52;;;;;;;2.80;2.30;;;16.60;99.90;;;;;;4989569;28;20193;-66
2022/12/31 09:26:38;;;;;;;5.03;2.67;;;16.00;1.00;;;;;;4990153;28;20269;-66
2022/12/31 09:29:32;;;;;;;16.73;3.87;;;15.50;1.00;;;;;;4991451;28;20523;-65
2022/12/31 09:32:22;;;;;;;9.10;3.10;;;15.10;99.50;;;;;;5006011;28;20514;-66
2022/12/31 09:35:06;;;;;;;9.10;2.10;;;14.80;99.90;;;;;;5001092;28;20778;-65
2022/12/31 09:37:41;;;;;;;7.00;2.83;;;14.50;1.00;;;;;;4985805;28;20440;-67
2022/12/31 09:40:32;;;;;;;26.20;4.50;;;14.60;1.00;;;;;;4986025;28;20443;-66
2022/12/31 09:43:19;;;;;;;12.00;2.60;;;15.10;99.90;;;;;;4992071;28;20464;-65
2022/12/31 09:45:48;;;;;;;9.70;2.83;;;14.60;1.00;;;;;;4991420;28;20447;-66
2022/12/31 09:48:38;;;;;;;16.37;3.90;;;14.60;1.00;;;;;;4995212;28;20537;-65
2022/12/31 09:51:20;;;;;;;6.90;2.80;;;14.60;1.00;;;;;;4990053;28;20577;-65
2022/12/31 09:53:52;;;;;;;12.77;2.53;;;14.70;1.00;;;;;;4991936;28;20459;-65
2022/12/31 09:56:43;;;;;;;14.33;2.77;;;14.90;99.90;;;;;;4993429;28;20797;-64
2022/12/31 09:59:22;;;;;;;5.80;2.23;;;15.50;99.90;;;;;;4990625;28;20466;-64
2022/12/31 10:01:55;;;;;;;14.50;2.87;;;15.90;1.00;;;;;;4992418;28;20534;-64
2022/12/31 10:04:24;;;;;;;55.40;7.67;;;16.30;1.00;;;;;;4991691;28;20526;-64
2022/12/31 10:07:08;;;;;;;40.47;5.63;;;16.50;99.90;;;;;;4990446;28;20448;-64
2022/12/31 10:09:54;;;;;;;61.17;7.80;;;16.40;99.90;;;;;;4990582;28;20506;-64
2022/12/31 10:12:58;;;;;;;48.00;6.73;;;16.50;95.40;;;;;;4991522;28;20518;-64
2022/12/31 10:15:40;;;;;;;40.40;7.83;;;16.50;94.10;;;;;;4936924;29;20564;-64
2022/12/31 10:18:18;;;;;;;40.13;5.57;;;16.60;21.30;;;;;;4985770;28;20979;-64
2022/12/31 10:21:05;;;;;;;81.47;13.33;;;17.00;1.00;;;;;;4991355;28;20811;-65
2022/12/31 10:24:03;;;;;;;149.70;16.07;;;17.20;1.00;;;;;;4984715;28;20444;-65
2022/12/31 10:26:35;;;;;;;54.83;8.10;;;17.10;1.00;;;;;;4985012;28;20462;-65
2022/12/31 10:29:25;;;;;;;241.40;28.00;;;17.30;1.00;;;;;;4990839;28;20431;-66
2022/12/31 10:32:36;;;;;;;43.80;9.00;;;17.50;1.00;;;;;;4990837;28;20428;-64
2022/12/31 10:35:37;;;;;;;106.77;12.23;;;17.60;1.00;;;;;;4960757;28;20444;-66
2022/12/31 10:38:08;;;;;;;276.57;30.77;;;17.80;1.00;;;;;;4992298;28;20447;-65
2022/12/31 10:40:58;;;;;;;28.07;4.47;;;17.70;1.00;;;;;;4990674;28;20507;-65
2022/12/31 10:43:39;;;;;;;33.43;6.67;;;17.70;1.00;;;;;;4988332;28;20443;-65
2022/12/31 10:46:20;;;;;;;21.33;4.33;;;17.60;1.00;;;;;;4990809;28;20550;-65
2022/12/31 10:48:54;;;;;;;9.53;2.30;;;17.70;1.00;;;;;;4991171;28;20438;-64
2022/12/31 10:51:44;;;;;;;13.00;2.93;;;17.60;1.00;;;;;;4991228;28;20530;-64
2022/12/31 10:54:28;;;;;;;9.67;3.13;;;17.70;1.00;;;;;;4989448;28;20472;-65
2022/12/31 10:57:15;;;;;;;20.50;3.50;;;17.80;1.00;;;;;;4998404;28;21087;-65
2022/12/31 10:59:46;;;;;;;11.30;3.23;;;17.80;1.00;;;;;;4989733;28;20420;-65
2022/12/31 11:02:39;;;;;;;19.93;3.77;;;18.00;1.00;;;;;;4991258;28;20448;-65
2022/12/31 11:05:42;;;;;;;14.03;2.70;;;18.00;1.00;;;;;;4998578;28;20462;-65
2022/12/31 11:08:31;;;;;;;9.10;2.60;;;18.00;1.00;;;;;;4988682;28;20924;-65
2022/12/31 11:11:15;;;;;;;14.97;3.10;;;18.10;1.00;;;;;;4990331;28;20610;-65
2022/12/31 11:14:05;;;;;;;9.00;3.23;;;18.20;1.00;;;;;;4991194;28;20432;-65
2022/12/31 11:16:45;;;;;;;6.27;2.00;;;18.30;1.00;;;;;;4987053;28;20443;-65
2022/12/31 11:19:45;;;;;;;11.17;2.90;;;18.20;1.00;;;;;;4993198;28;20431;-65
2022/12/31 11:22:42;;;;;;;16.40;2.83;;;18.40;1.00;;;;;;4988765;28;20475;-65
2022/12/31 11:25:11;;;;;;;3.30;1.73;;;18.50;1.00;;;;;;4976376;28;20460;-65
2022/12/31 11:27:58;;;;;;;5.97;2.17;;;18.40;1.00;;;;;;4991014;28;20435;-65
2022/12/31 11:30:51;;;;;;;14.23;3.00;;;18.50;1.00;;;;;;4988608;28;20432;-65
2022/12/31 11:33:34;;;;;;;15.70;3.33;;;18.60;1.00;;;;;;4990541;28;20761;-65
2022/12/31 11:36:22;;;;;;;27.73;5.43;;;18.40;1.00;;;;;;4990875;28;21290;-65
2022/12/31 11:39:23;;;;;;;23.70;3.30;;;18.40;1.00;;;;;;4990775;28;20438;-65
2022/12/31 11:41:53;;;;;;;6.57;1.70;;;18.40;1.00;;;;;;4975030;28;20982;-65
2022/12/31 11:44:52;;;;;;;15.77;3.10;;;18.20;1.00;;;;;;4990289;28;20436;-65
2022/12/31 11:47:37;;;;;;;22.43;3.37;;;18.10;1.00;;;;;;4990073;28;20428;-66
2022/12/31 11:50:20;;;;;;;30.70;4.97;;;18.20;1.00;;;;;;4988915;28;20432;-66
2022/12/31 11:53:07;;;;;;;21.10;4.30;;;18.20;1.00;;;;;;4974586;28;20478;-67
2022/12/31 11:55:55;;;;;;;15.30;3.43;;;18.30;1.00;;;;;;4990826;28;20551;-66
2022/12/31 11:58:27;;;;;;;15.03;2.77;;;18.00;1.00;;;;;;4990998;28;20459;-67
2022/12/31 12:01:03;;;;;;;10.13;2.30;;;17.90;1.00;;;;;;4988986;28;20519;-66
2022/12/31 12:03:30;;;;;;;8.30;2.27;;;17.90;1.00;;;;;;4989765;28;20955;-66
2022/12/31 12:05:57;;;;;;;6.13;2.30;;;18.00;1.00;;;;;;5002602;28;20455;-65
2022/12/31 12:08:25;;;;;;;23.00;3.30;;;18.00;1.00;;;;;;4987902;28;20920;-65
2022/12/31 12:11:05;;;;;;;19.70;2.60;;;17.90;1.00;;;;;;4985664;28;20523;-65
2022/12/31 12:13:31;;;;;;;18.20;3.10;;;18.00;1.00;;;;;;4989411;28;20522;-65
2022/12/31 12:16:02;;;;;;;10.20;2.60;;;17.90;1.00;;;;;;4985849;28;21584;-65
2022/12/31 12:18:45;;;;;;;4.67;1.77;;;17.90;1.00;;;;;;4984389;28;20255;-65
2022/12/31 12:21:22;;;;;;;9.47;2.40;;;17.80;1.00;;;;;;4988443;28;20718;-66
2022/12/31 12:24:01;;;;;;;8.13;1.93;;;17.70;1.00;;;;;;4988542;28;20439;-64
2022/12/31 12:26:33;;;;;;;7.13;2.10;;;17.60;1.00;;;;;;4988787;28;20474;-64
2022/12/31 12:29:14;;;;;;;42.37;4.80;;;17.50;1.00;;;;;;4986069;28;20519;-64
2022/12/31 12:31:40;;;;;;;9.40;2.57;;;17.50;1.00;;;;;;4988193;28;20447;-64
2022/12/31 12:34:27;;;;;;;5.80;2.40;;;17.50;1.00;;;;;;4989793;28;20530;-64
2022/12/31 12:36:53;;;;;;;4.30;1.80;;;17.40;1.00;;;;;;4991974;28;20475;-64
2022/12/31 12:39:28;;;;;;;3.90;1.90;;;17.30;1.00;;;;;;4994731;28;20439;-64
2022/12/31 12:42:11;;;;;;;5.73;1.80;;;17.20;1.00;;;;;;4987973;28;20270;-64
2022/12/31 12:44:38;;;;;;;15.17;3.30;;;17.20;1.00;;;;;;4988345;28;20464;-65
2022/12/31 12:47:07;;;;;;;4.93;1.93;;;17.20;1.00;;;;;;4985994;28;20517;-64
2022/12/31 12:49:41;;;;;;;8.20;3.20;;;17.10;1.00;;;;;;4985018;28;20464;-64
2022/12/31 12:52:21;;;;;;;10.70;2.70;;;17.10;1.00;;;;;;4985858;28;20436;-65
2022/12/31 12:55:16;;;;;;;6.60;1.73;;;17.10;1.00;;;;;;4986112;28;20542;-66
2022/12/31 12:57:47;;;;;;;44.30;5.97;;;17.30;1.00;;;;;;4983656;28;20469;-66
2022/12/31 13:00:19;;;;;;;4.80;2.13;;;17.20;1.00;;;;;;4985112;28;20436;-66
2022/12/31 13:02:47;;;;;;;7.90;2.33;;;17.30;1.00;;;;;;4984675;28;20514;-66
2022/12/31 13:05:31;;;;;;;6.90;2.57;;;17.30;1.00;;;;;;4987051;28;20454;-66
2022/12/31 13:08:24;;;;;;;56.70;8.00;;;17.30;1.00;;;;;;4985785;28;20440;-66
2022/12/31 13:11:21;;;;;;;113.60;15.03;;;17.20;1.00;;;;;;4985184;28;20537;-65
2022/12/31 13:14:08;;;;;;;35.83;6.80;;;17.20;1.00;;;;;;4976063;28;20510;-65
2022/12/31 13:16:56;;;;;;;40.50;6.40;;;17.30;1.00;;;;;;4985728;28;20510;-65
2022/12/31 13:19:55;;;;;;;33.33;5.10;;;17.10;1.00;;;;;;4989623;28;20835;-66
2022/12/31 13:22:38;;;;;;;58.70;8.33;;;17.00;1.00;;;;;;4982999;28;20475;-65
2022/12/31 13:25:23;;;;;;;41.13;6.33;;;16.90;1.00;;;;;;4989044;28;20440;-64
2022/12/31 13:27:52;;;;;;;6.97;2.43;;;16.90;1.00;;;;;;4985548;28;20687;-64
2022/12/31 13:30:31;;;;;;;6.63;1.93;;;16.80;1.00;;;;;;4988689;28;20452;-64
2022/12/31 13:33:06;;;;;;;7.33;1.90;;;16.70;1.00;;;;;;4990178;28;20431;-65
2022/12/31 13:35:55;;;;;;;8.70;2.40;;;16.80;1.00;;;;;;4989612;28;20678;-64
2022/12/31 13:38:33;;;;;;;3.23;1.60;;;16.70;1.00;;;;;;4987602;28;20474;-63